Time;durP1;ratioP1;P1;durP2;ratioP2;P2;SDS_P1;SDS_P2;PMS_P1;PMS_P2;Temp;Humidity;BMP_temperature;BMP_pressure;BME280_temperature;BME280_humidity;BME280_pressure;Samples;Min_cycle;Max_cycle;Signal;HPM_P1;HPM_P2
2023/04/08 00:02:18;;;;;;;;;;;14.40;49.30;;;;;;5112281;28;19972;-74
2023/04/08 00:04:44;;;;;;;;;;;14.40;49.30;;;;;;5093902;28;20214;-72
2023/04/08 00:07:10;;;;;;;;;;;14.30;49.30;;;;;;5093956;28;20014;-72
2023/04/08 00:09:35;;;;;;;;;;;14.30;49.20;;;;;;5112156;28;20010;-74
2023/04/08 00:12:01;;;;;;;;;;;14.30;49.20;;;;;;5096154;28;20013;-71
2023/04/08 00:14:27;;;;;;;;;;;14.30;49.20;;;;;;5097566;28;19919;-71
2023/04/08 00:16:52;;;;;;;;;;;14.30;49.20;;;;;;5097868;28;19926;-75
2023/04/08 00:19:18;;;;;;;;;;;14.30;49.20;;;;;;5097777;28;19919;-74
2023/04/08 00:21:44;;;;;;;;;;;14.30;49.20;;;;;;5097781;28;19927;-74
2023/04/08 00:24:10;;;;;;;;;;;14.30;49.20;;;;;;5097216;28;19928;-74
2023/04/08 00:26:36;;;;;;;;;;;14.30;49.20;;;;;;5097286;28;19971;-74
2023/04/08 00:29:02;;;;;;;;;;;14.30;49.10;;;;;;5097359;28;19972;-72
2023/04/08 00:31:27;;;;;;;;;;;14.30;49.10;;;;;;5097544;28;20324;-76
2023/04/08 00:33:53;;;;;;;;;;;14.30;49.10;;;;;;5115620;28;19925;-75
2023/04/08 00:36:18;;;;;;;;;;;14.20;49.10;;;;;;5115419;28;20294;-74
2023/04/08 00:38:44;;;;;;;;;;;14.20;49.00;;;;;;5115398;28;20018;-73
2023/04/08 00:41:09;;;;;;;;;;;14.20;49.10;;;;;;5096929;28;20371;-75
2023/04/08 00:43:35;;;;;;;;;;;14.30;49.10;;;;;;5097004;28;19923;-73
2023/04/08 00:46:00;;;;;;;;;;;14.20;49.00;;;;;;5115372;28;19924;-75
2023/04/08 00:48:26;;;;;;;;;;;14.20;49.00;;;;;;5097230;28;19959;-75
2023/04/08 00:50:51;;;;;;;;;;;14.20;49.00;;;;;;5115123;28;19920;-75
2023/04/08 00:53:18;;;;;;;;;;;14.20;49.00;;;;;;5096965;28;19996;-75
2023/04/08 00:55:43;;;;;;;;;;;14.20;48.90;;;;;;5097115;28;19919;-74
2023/04/08 00:58:09;;;;;;;;;;;14.20;49.00;;;;;;5096867;28;20295;-76
2023/04/08 01:00:35;;;;;;;;;;;14.20;48.90;;;;;;5096659;28;19969;-75
2023/04/08 01:03:07;;;;;;;;;;;14.20;48.90;;;;;;5114686;28;20022;-75
2023/04/08 01:05:42;;;;;;;;;;;14.20;48.90;;;;;;5114925;28;20345;-75
2023/04/08 01:08:09;;;;;;;;;;;14.10;48.80;;;;;;5096544;28;19927;-75
2023/04/08 01:10:36;;;;;;;;;;;14.20;48.80;;;;;;5096813;28;19920;-79
2023/04/08 01:13:08;;;;;;;;;;;14.10;48.80;;;;;;5096774;28;20379;-74
2023/04/08 01:15:35;;;;;;;;;;;14.10;48.80;;;;;;5096398;28;19927;-75
2023/04/08 01:18:04;;;;;;;;;;;14.10;48.70;;;;;;5114656;28;20299;-75
2023/04/08 01:20:30;;;;;;;;;;;14.10;48.70;;;;;;5096711;28;20338;-75
2023/04/08 01:25:43;;;;;;;;;;;14.10;48.70;;;;;;5110340;27;19912;-76
2023/04/08 01:28:11;;;;;;;;;;;14.10;48.70;;;;;;5108872;28;19920;-76
2023/04/08 01:30:37;;;;;;;;;;;14.10;48.70;;;;;;5109449;28;19920;-76
2023/04/08 01:33:04;;;;;;;;;;;14.10;48.70;;;;;;5109905;28;20290;-76
2023/04/08 01:35:30;;;;;;;;;;;14.00;48.60;;;;;;5108868;28;19960;-77
2023/04/08 01:37:56;;;;;;;;;;;14.10;48.70;;;;;;5109010;28;19970;-76
2023/04/08 01:40:22;;;;;;;;;;;14.30;48.50;;;;;;5109070;28;19924;-76
2023/04/08 01:42:48;;;;;;;;;;;14.40;48.30;;;;;;5108928;28;19920;-77
2023/04/08 01:45:15;;;;;;;;;;;14.60;48.00;;;;;;5108540;28;20019;-76
2023/04/08 01:47:41;;;;;;;;;;;14.70;47.60;;;;;;5108849;28;20010;-77
2023/04/08 01:50:07;;;;;;;;;;;14.90;47.40;;;;;;5108519;28;20423;-77
2023/04/08 01:52:34;;;;;;;;;;;15.00;47.10;;;;;;5108690;28;19923;-77
2023/04/08 01:55:00;;;;;;;;;;;15.00;46.80;;;;;;5091480;28;19965;-76
2023/04/08 01:57:26;;;;;;;;;;;15.10;46.60;;;;;;5108687;28;19924;-76
2023/04/08 01:59:55;;;;;;;;;;;15.10;46.50;;;;;;5108374;28;20379;-78
2023/04/08 02:02:21;;;;;;;;;;;15.20;46.40;;;;;;5108466;28;19972;-77
2023/04/08 02:04:47;;;;;;;;;;;15.20;46.30;;;;;;5108197;28;19986;-78
2023/04/08 02:07:13;;;;;;;;;;;15.20;46.10;;;;;;5108254;28;19982;-77
2023/04/08 02:09:38;;;;;;;;;;;15.30;46.10;;;;;;5108478;28;19920;-78
2023/04/08 02:12:04;;;;;;;;;;;15.30;45.90;;;;;;5109383;28;19920;-77
2023/04/08 02:14:30;;;;;;;;;;;15.30;45.90;;;;;;5108354;28;19927;-77
2023/04/08 02:17:01;;;;;;;;;;;15.30;45.70;;;;;;5107994;28;19927;-77
2023/04/08 02:19:35;;;;;;;;;;;15.30;45.70;;;;;;5107878;28;20016;-78
2023/04/08 02:22:04;;;;;;;;;;;15.30;45.70;;;;;;5109238;28;20310;-78
2023/04/08 02:24:31;;;;;;;;;;;15.30;45.60;;;;;;5119957;28;19923;-73
2023/04/08 02:26:57;;;;;;;;;;;15.30;45.60;;;;;;5111226;28;19920;-72
2023/04/08 02:29:23;;;;;;;;;;;15.30;45.60;;;;;;5111418;28;20397;-77
2023/04/08 02:31:49;;;;;;;;;;;15.30;45.50;;;;;;5129611;28;19919;-73
2023/04/08 02:34:16;;;;;;;;;;;15.30;45.50;;;;;;5111316;28;19928;-73
2023/04/08 02:36:46;;;;;;;;;;;15.30;45.50;;;;;;5099108;28;19978;-78
2023/04/08 02:39:11;;;;;;;;;;;15.20;45.40;;;;;;5097733;28;20015;-73
2023/04/08 02:41:37;;;;;;;;;;;15.30;45.50;;;;;;5097440;28;19962;-78
2023/04/08 02:44:02;;;;;;;;;;;15.20;45.40;;;;;;5115624;28;19928;-79
2023/04/08 02:46:28;;;;;;;;;;;15.20;45.40;;;;;;5097335;28;19927;-74
2023/04/08 02:48:53;;;;;;;;;;;15.20;45.40;;;;;;5097190;28;20006;-78
2023/04/08 02:51:19;;;;;;;;;;;15.20;45.40;;;;;;5097187;28;20002;-78
2023/04/08 02:53:44;;;;;;;;;;;15.20;45.40;;;;;;5097473;28;19926;-78
2023/04/08 02:56:10;;;;;;;;;;;15.10;45.40;;;;;;5097120;28;19975;-77
2023/04/08 02:58:36;;;;;;;;;;;15.10;45.40;;;;;;5097357;28;19968;-78
2023/04/08 03:01:01;;;;;;;;;;;15.20;45.40;;;;;;5097148;28;20393;-79
2023/04/08 03:03:28;;;;;;;;;;;15.20;45.30;;;;;;5097246;28;20312;-79
2023/04/08 03:05:54;;;;;;;;;;;15.30;45.20;;;;;;5096758;28;19964;-78
2023/04/08 03:08:20;;;;;;;;;;;15.30;45.10;;;;;;5097256;28;19926;-79
2023/04/08 03:10:46;;;;;;;;;;;15.30;45.10;;;;;;5097015;28;20002;-73
2023/04/08 03:13:11;;;;;;;;;;;15.30;45.10;;;;;;5096773;28;19923;-77
2023/04/08 03:15:37;;;;;;;;;;;15.30;45.00;;;;;;5115059;28;19972;-74
2023/04/08 03:18:02;;;;;;;;;;;15.30;45.00;;;;;;5115069;28;19920;-78
2023/04/08 03:20:28;;;;;;;;;;;15.30;45.00;;;;;;5096847;28;20347;-74
2023/04/08 03:22:54;;;;;;;;;;;15.30;44.90;;;;;;5096924;28;19982;-78
2023/04/08 03:25:19;;;;;;;;;;;15.30;44.90;;;;;;5114504;28;19931;-78
2023/04/08 03:27:45;;;;;;;;;;;15.30;44.80;;;;;;5114734;28;20554;-78
2023/04/08 03:30:10;;;;;;;;;;;15.30;44.80;;;;;;5096461;28;19982;-79
2023/04/08 03:32:36;;;;;;;;;;;15.30;44.80;;;;;;5096857;28;19926;-75
2023/04/08 03:35:01;;;;;;;;;;;15.30;44.70;;;;;;5114578;28;19923;-72
2023/04/08 03:37:27;;;;;;;;;;;15.30;44.70;;;;;;5096268;28;20007;-79
2023/04/08 03:39:53;;;;;;;;;;;15.30;44.70;;;;;;5096624;28;20347;-79
2023/04/08 03:42:19;;;;;;;;;;;15.20;44.60;;;;;;5095948;28;19920;-73
2023/04/08 03:44:44;;;;;;;;;;;15.30;44.70;;;;;;5096106;28;19923;-79
2023/04/08 03:47:10;;;;;;;;;;;15.30;44.60;;;;;;5113381;28;19926;-79
2023/04/08 03:49:35;;;;;;;;;;;15.30;44.70;;;;;;5114350;28;20341;-78
2023/04/08 03:52:01;;;;;;;;;;;15.20;44.60;;;;;;5095904;28;20014;-77
2023/04/08 03:54:26;;;;;;;;;;;15.20;44.60;;;;;;5096009;28;19972;-78
2023/04/08 03:56:52;;;;;;;;;;;15.20;44.60;;;;;;5095985;28;19972;-78
2023/04/08 03:59:17;;;;;;;;;;;15.20;44.60;;;;;;5095868;28;19919;-73
2023/04/08 04:01:43;;;;;;;;;;;15.20;44.50;;;;;;5114077;28;19962;-73
2023/04/08 04:04:08;;;;;;;;;;;15.20;44.50;;;;;;5096064;28;19924;-78
2023/04/08 04:06:34;;;;;;;;;;;15.20;44.50;;;;;;5095710;28;19956;-79
2023/04/08 04:08:59;;;;;;;;;;;15.20;44.50;;;;;;5095912;28;19928;-79
2023/04/08 04:11:25;;;;;;;;;;;15.20;44.40;;;;;;5095637;28;19920;-78
2023/04/08 04:13:50;;;;;;;;;;;15.20;44.40;;;;;;5095920;28;19919;-73
2023/04/08 04:16:16;;;;;;;;;;;15.20;44.30;;;;;;5095528;28;19920;-78
2023/04/08 04:18:41;;;;;;;;;;;15.20;44.40;;;;;;5113817;28;20018;-78
2023/04/08 04:21:07;;;;;;;;;;;15.20;44.30;;;;;;5095846;28;19926;-76
2023/04/08 04:23:32;;;;;;;;;;;15.20;44.40;;;;;;5094977;28;20355;-74
2023/04/08 04:25:58;;;;;;;;;;;15.30;44.40;;;;;;5095715;28;19920;-78
2023/04/08 04:28:24;;;;;;;;;;;15.20;44.30;;;;;;5095601;28;19919;-78
2023/04/08 04:30:49;;;;;;;;;;;15.20;44.30;;;;;;5095273;28;20018;-77
2023/04/08 04:33:15;;;;;;;;;;;15.20;44.30;;;;;;5095633;28;20022;-77
2023/04/08 04:35:40;;;;;;;;;;;15.20;44.30;;;;;;5095141;28;20267;-77
2023/04/08 04:38:09;;;;;;;;;;;15.20;44.20;;;;;;5095332;28;19958;-75
2023/04/08 04:40:35;;;;;;;;;;;15.20;44.10;;;;;;5113442;28;20248;-74
2023/04/08 04:43:01;;;;;;;;;;;15.20;44.30;;;;;;5095520;28;20655;-72
2023/04/08 04:45:26;;;;;;;;;;;15.20;44.20;;;;;;5095087;28;19932;-79
2023/04/08 04:47:52;;;;;;;;;;;15.20;44.20;;;;;;5094950;28;20286;-74
2023/04/08 04:50:17;;;;;;;;;;;15.20;44.20;;;;;;5094891;28;19920;-74
2023/04/08 04:52:43;;;;;;;;;;;15.20;44.20;;;;;;5095223;28;19924;-72
2023/04/08 04:55:09;;;;;;;;;;;15.20;44.20;;;;;;5113030;28;20453;-76
2023/04/08 04:57:35;;;;;;;;;;;15.10;44.10;;;;;;5094932;28;20048;-72
2023/04/08 05:00:00;;;;;;;;;;;15.20;44.20;;;;;;5094499;28;19964;-73
2023/04/08 05:02:26;;;;;;;;;;;15.20;44.10;;;;;;5094964;28;19924;-77
2023/04/08 05:04:52;;;;;;;;;;;15.20;44.10;;;;;;5094636;28;20405;-77
2023/04/08 05:07:18;;;;;;;;;;;15.10;44.00;;;;;;5112975;28;19924;-77
2023/04/08 05:09:44;;;;;;;;;;;15.10;44.00;;;;;;5094828;28;20015;-77
2023/04/08 05:12:09;;;;;;;;;;;15.10;44.00;;;;;;5094620;28;19919;-78
2023/04/08 05:14:35;;;;;;;;;;;15.10;44.10;;;;;;5094625;28;19920;-77
2023/04/08 05:17:00;;;;;;;;;;;15.10;44.10;;;;;;5093899;28;19926;-78
2023/04/08 05:19:26;;;;;;;;;;;15.10;44.10;;;;;;5094580;28;20267;-77
2023/04/08 05:21:51;;;;;;;;;;;15.10;44.10;;;;;;5094567;28;19919;-77
2023/04/08 05:24:17;;;;;;;;;;;15.10;44.00;;;;;;5094255;28;19976;-74
2023/04/08 05:26:42;;;;;;;;;;;15.20;44.10;;;;;;5094791;28;19927;-77
2023/04/08 05:29:08;;;;;;;;;;;15.10;44.10;;;;;;5094412;28;20003;-78
2023/04/08 05:31:33;;;;;;;;;;;15.10;44.10;;;;;;5093694;28;19920;-79
2023/04/08 05:33:59;;;;;;;;;;;15.10;44.10;;;;;;5094313;28;19973;-77
2023/04/08 05:36:26;;;;;;;;;;;15.00;44.10;;;;;;5094334;28;19936;-77
2023/04/08 05:38:51;;;;;;;;;;;15.10;44.10;;;;;;5094753;28;19946;-77
2023/04/08 05:41:17;;;;;;;;;;;15.10;44.10;;;;;;5094174;28;20375;-74
2023/04/08 05:43:42;;;;;;;;;;;15.00;44.00;;;;;;5094545;28;20018;-77
2023/04/08 05:46:08;;;;;;;;;;;15.00;44.00;;;;;;5094541;28;20010;-78
2023/04/08 05:48:34;;;;;;;;;;;15.00;44.00;;;;;;5093926;28;20002;-78
2023/04/08 05:51:00;;;;;;;;;;;15.10;44.10;;;;;;5094180;28;20434;-78
2023/04/08 05:53:25;;;;;;;;;;;15.00;44.00;;;;;;5094296;28;20287;-77
2023/04/08 05:55:51;;;;;;;;;;;15.00;44.00;;;;;;5094436;28;19931;-77
2023/04/08 05:58:16;;;;;;;;;;;15.00;43.90;;;;;;5094054;28;20355;-72
2023/04/08 06:00:42;;;;;;;;;;;15.00;44.00;;;;;;5093990;28;19927;-78
2023/04/08 06:03:07;;;;;;;;;;;15.00;44.00;;;;;;5094205;28;19920;-78
2023/04/08 06:05:32;;;;;;;;;;;15.00;44.00;;;;;;5094103;28;20290;-77
2023/04/08 06:07:58;;;;;;;;;;;15.00;44.00;;;;;;5094101;28;19973;-74
2023/04/08 06:10:23;;;;;;;;;;;15.00;44.10;;;;;;5094687;28;20283;-77
2023/04/08 06:12:49;;;;;;;;;;;15.00;44.00;;;;;;5097849;28;19927;-74
2023/04/08 06:15:15;;;;;;;;;;;15.00;44.00;;;;;;5097939;28;19973;-77
2023/04/08 06:17:41;;;;;;;;;;;15.00;44.00;;;;;;5098067;28;20470;-76
2023/04/08 06:20:08;;;;;;;;;;;15.00;44.00;;;;;;5098113;28;19927;-77
2023/04/08 06:22:34;;;;;;;;;;;15.00;44.10;;;;;;5116000;28;19964;-76
2023/04/08 06:25:00;;;;;;;;;;;15.00;44.00;;;;;;5097684;28;19930;-75
2023/04/08 06:27:26;;;;;;;;;;;15.00;44.00;;;;;;5097808;28;20316;-75
2023/04/08 06:29:52;;;;;;;;;;;15.00;44.00;;;;;;5097936;28;20465;-76
2023/04/08 06:32:18;;;;;;;;;;;15.00;44.10;;;;;;5097556;28;20022;-76
2023/04/08 06:34:44;;;;;;;;;;;15.00;44.10;;;;;;5097829;28;19981;-77
2023/04/08 06:37:10;;;;;;;;;;;15.00;44.10;;;;;;5097782;28;20324;-75
2023/04/08 06:39:35;;;;;;;;;;;15.00;44.10;;;;;;5097707;28;19920;-74
2023/04/08 06:42:01;;;;;;;;;;;14.90;44.10;;;;;;5097302;28;19946;-73
2023/04/08 06:44:26;;;;;;;;;;;15.00;44.10;;;;;;5115596;28;19931;-76
2023/04/08 06:46:52;;;;;;;;;;;15.00;44.10;;;;;;5097411;28;19926;-75
2023/04/08 06:49:17;;;;;;;;;;;15.00;44.10;;;;;;5097266;28;19920;-75
2023/04/08 06:51:43;;;;;;;;;;;15.00;44.20;;;;;;5097543;28;19923;-74
2023/04/08 06:54:09;;;;;;;;;;;15.00;44.20;;;;;;5097553;28;20320;-72
2023/04/08 06:56:35;;;;;;;;;;;14.90;44.10;;;;;;5097172;28;20003;-74
2023/04/08 06:59:03;;;;;;;;;;;15.00;44.20;;;;;;5097311;28;20363;-73
2023/04/08 07:01:28;;;;;;;;;;;14.90;44.20;;;;;;5097013;28;19920;-74
2023/04/08 07:03:54;;;;;;;;;;;14.90;44.20;;;;;;5097076;28;19924;-73
2023/04/08 07:06:19;;;;;;;;;;;14.90;44.20;;;;;;5096949;28;19919;-73
2023/04/08 07:08:45;;;;;;;;;;;14.90;44.30;;;;;;5115161;28;19920;-73
2023/04/08 07:11:11;;;;;;;;;;;14.90;44.30;;;;;;5115100;28;19938;-73
2023/04/08 07:13:36;;;;;;;;;;;15.00;44.30;;;;;;5096988;28;19924;-73
2023/04/08 07:16:02;;;;;;;;;;;14.90;44.40;;;;;;5097105;28;19926;-74
2023/04/08 07:18:27;;;;;;;;;;;14.90;44.40;;;;;;5115105;28;20391;-72
2023/04/08 07:20:53;;;;;;;;;;;14.90;44.40;;;;;;5096694;28;19921;-73
2023/04/08 07:23:19;;;;;;;;;;;14.90;44.50;;;;;;5114364;28;19920;-72
2023/04/08 07:25:44;;;;;;;;;;;14.90;44.50;;;;;;5114889;28;20075;-74
2023/04/08 07:28:10;;;;;;;;;;;14.90;44.60;;;;;;5096430;28;19920;-73
2023/04/08 07:30:35;;;;;;;;;;;14.90;44.70;;;;;;5114884;28;19923;-73
2023/04/08 07:33:01;;;;;;;;;;;14.80;44.80;;;;;;5096472;28;20413;-74
2023/04/08 07:35:27;;;;;;;;;;;14.80;44.80;;;;;;5114593;28;20029;-73
2023/04/08 07:37:53;;;;;;;;;;;14.80;45.00;;;;;;5079478;28;20318;-73
2023/04/08 07:40:18;;;;;;;;;;;14.80;45.00;;;;;;5114568;28;20008;-73
2023/04/08 07:42:44;;;;;;;;;;;14.80;45.10;;;;;;5114566;28;20394;-73
2023/04/08 07:45:09;;;;;;;;;;;14.70;45.00;;;;;;5096025;28;19967;-74
2023/04/08 07:47:35;;;;;;;;;;;14.70;45.10;;;;;;5096225;28;20015;-74
2023/04/08 07:50:01;;;;;;;;;;;14.70;45.20;;;;;;5096007;28;20295;-74
2023/04/08 07:52:28;;;;;;;;;;;14.70;45.20;;;;;;5114205;28;19997;-73
2023/04/08 07:54:54;;;;;;;;;;;14.70;45.30;;;;;;5096297;28;19919;-73
2023/04/08 07:57:20;;;;;;;;;;;14.60;45.30;;;;;;5096366;28;19926;-73
2023/04/08 07:59:45;;;;;;;;;;;14.60;45.50;;;;;;5095697;28;19920;-70
2023/04/08 08:02:11;;;;;;;;;;;14.60;45.60;;;;;;5096105;28;19938;-73
2023/04/08 08:04:36;;;;;;;;;;;14.50;45.60;;;;;;5095656;28;19927;-73
2023/04/08 08:07:02;;;;;;;;;;;14.60;45.70;;;;;;5095763;28;19924;-73
2023/04/08 08:09:27;;;;;;;;;;;14.60;45.80;;;;;;5114021;28;20020;-70
2023/04/08 08:11:53;;;;;;;;;;;14.50;45.80;;;;;;5095621;28;19923;-73
2023/04/08 08:14:18;;;;;;;;;;;14.50;45.90;;;;;;5114462;28;19924;-73
2023/04/08 08:16:44;;;;;;;;;;;14.50;46.00;;;;;;5095814;28;20290;-73
2023/04/08 08:19:11;;;;;;;;;;;14.50;46.10;;;;;;5095527;28;20286;-73
2023/04/08 08:21:36;;;;;;;;;;;14.40;46.10;;;;;;5095481;28;20392;-71
2023/04/08 08:24:02;;;;;;;;;;;14.40;46.00;;;;;;5095202;28;20020;-74
2023/04/08 08:26:27;;;;;;;;;;;14.40;46.10;;;;;;5095353;28;20057;-73
2023/04/08 08:28:53;;;;;;;;;;;14.40;46.10;;;;;;5095373;28;19964;-74
2023/04/08 08:31:19;;;;;;;;;;;14.40;46.20;;;;;;5095528;28;19919;-74
2023/04/08 08:33:45;;;;;;;;;;;14.30;46.20;;;;;;5113242;28;20384;-71
2023/04/08 08:36:11;;;;;;;;;;;14.30;46.20;;;;;;5095251;28;20389;-74
2023/04/08 08:38:36;;;;;;;;;;;14.30;46.30;;;;;;5095495;28;19923;-74
2023/04/08 08:41:03;;;;;;;;;;;14.30;46.40;;;;;;5113296;28;20290;-73
2023/04/08 08:43:32;;;;;;;;;;;14.30;46.40;;;;;;5113309;28;19919;-75
2023/04/08 08:45:58;;;;;;;;;;;14.30;46.50;;;;;;5113170;28;19920;-71
2023/04/08 08:48:23;;;;;;;;;;;14.30;46.50;;;;;;5095342;28;20386;-74
2023/04/08 08:50:49;;;;;;;;;;;14.20;46.50;;;;;;5113365;28;20017;-71
2023/04/08 08:53:15;;;;;;;;;;;14.30;46.60;;;;;;5094847;28;19919;-70
2023/04/08 08:55:40;;;;;;;;;;;14.30;46.50;;;;;;5113350;28;20010;-70
2023/04/08 08:58:07;;;;;;;;;;;14.30;46.50;;;;;;5094788;28;20436;-75
2023/04/08 09:00:37;;;;;;;;;;;14.20;46.40;;;;;;5094701;28;20367;-74
2023/04/08 09:03:18;;;;;;;;;;;14.30;46.50;;;;;;5094615;28;19920;-74
2023/04/08 09:06:00;;;;;;;;;;;14.20;46.60;;;;;;5094693;28;19948;-74
2023/04/08 09:08:27;;;;;;;;;;;14.30;46.70;;;;;;5112828;28;19920;-71
2023/04/08 09:10:53;;;;;;;;;;;14.30;46.70;;;;;;5077772;28;19962;-74
2023/04/08 09:13:18;;;;;;;;;;;14.20;46.70;;;;;;5094497;28;19955;-70
2023/04/08 09:16:04;;;;;;;;;;;14.20;46.70;;;;;;5094934;28;19970;-71
2023/04/08 09:18:30;;;;;;;;;;;14.20;46.80;;;;;;5094721;28;20141;-74
2023/04/08 09:20:55;;;;;;;;;;;14.20;46.90;;;;;;5094623;28;20183;-71
2023/04/08 09:23:21;;;;;;;;;;;14.20;46.90;;;;;;5094247;28;19924;-74
2023/04/08 09:25:46;;;;;;;;;;;14.20;46.90;;;;;;5094432;28;19931;-71
2023/04/08 09:28:20;;;;;;;;;;;14.20;47.00;;;;;;5094408;28;20371;-71
2023/04/08 09:30:46;;;;;;;;;;;14.20;47.00;;;;;;5094613;28;19927;-74
2023/04/08 09:33:12;;;;;;;;;;;14.20;47.10;;;;;;5094678;28;20390;-71
2023/04/08 09:35:37;;;;;;;;;;;14.20;47.10;;;;;;5094455;28;19919;-73
2023/04/08 09:38:03;;;;;;;;;;;14.20;47.10;;;;;;5094835;28;19920;-71
2023/04/08 09:40:32;;;;;;;;;;;14.20;47.20;;;;;;5112583;28;19919;-74
2023/04/08 09:43:02;;;;;;;;;;;14.20;47.20;;;;;;5094335;28;20002;-70
2023/04/08 09:45:27;;;;;;;;;;;14.20;47.20;;;;;;5095062;28;19923;-75
2023/04/08 09:48:02;;;;;;;;;;;14.20;47.20;;;;;;5116078;28;19920;-76
2023/04/08 09:50:31;;;;;;;;;;;14.20;47.20;;;;;;5098140;28;19926;-74
2023/04/08 09:53:06;;;;;;;;;;;14.20;47.20;;;;;;5097785;28;20345;-75
2023/04/08 09:55:33;;;;;;;;;;;14.20;47.10;;;;;;5098227;28;20102;-73
2023/04/08 10:00:45;;;;;;;;;;;14.30;47.30;;;;;;5110411;27;19918;-71
2023/04/08 10:05:52;;;;;;;;;;;14.30;47.30;;;;;;5110187;27;19913;-71
2023/04/08 10:08:18;;;;;;;;;;;14.40;47.40;;;;;;5108978;28;19952;-71
2023/04/08 10:10:44;;;;;;;;;;;14.40;47.30;;;;;;5109193;28;19975;-73
2023/04/08 10:13:09;;;;;;;;;;;14.40;47.30;;;;;;5108975;28;20379;-73
2023/04/08 10:15:36;;;;;;;;;;;14.40;47.30;;;;;;5108792;28;19924;-72
2023/04/08 10:20:43;;;;;;;;;;;14.40;47.50;;;;;;5110296;27;19912;-73
2023/04/08 10:23:12;;;;;;;;;;;14.40;47.30;;;;;;5108927;28;19920;-75
2023/04/08 10:25:39;;;;;;;;;;;14.50;47.30;;;;;;5108927;28;19924;-71
2023/04/08 10:28:23;;;;;;;;;;;14.40;47.30;;;;;;5108884;28;19924;-73
2023/04/08 10:30:49;;;;;;;;;;;14.40;47.30;;;;;;5108724;28;19924;-74
2023/04/08 10:33:21;;;;;;;;;;;14.40;47.40;;;;;;5109049;28;19931;-74
2023/04/08 10:35:47;;;;;;;;;;;14.50;47.50;;;;;;5108556;28;19946;-72
2023/04/08 10:38:13;;;;;;;;;;;14.40;47.40;;;;;;5109894;28;19920;-74
2023/04/08 10:40:41;;;;;;;;;;;14.50;47.50;;;;;;5108906;28;20269;-74
2023/04/08 10:43:08;;;;;;;;;;;14.40;47.50;;;;;;5108858;28;20386;-74
2023/04/08 10:45:34;;;;;;;;;;;14.40;47.40;;;;;;5108760;28;19920;-74
2023/04/08 10:48:19;;;;;;;;;;;14.40;47.50;;;;;;5108827;28;20382;-74
2023/04/08 10:51:00;;;;;;;;;;;14.40;47.50;;;;;;5108494;28;20260;-74
2023/04/08 10:53:28;;;;;;;;;;;14.50;47.60;;;;;;5109685;28;19920;-73
2023/04/08 10:56:02;;;;;;;;;;;14.40;47.70;;;;;;5109595;28;20386;-73
2023/04/08 10:58:27;;;;;;;;;;;14.50;47.70;;;;;;5091216;28;19931;-74
2023/04/08 11:00:53;;;;;;;;;;;14.50;47.70;;;;;;5108453;28;19920;-74
2023/04/08 11:03:18;;;;;;;;;;;14.50;47.70;;;;;;5109467;28;19927;-73
2023/04/08 11:05:44;;;;;;;;;;;14.40;47.80;;;;;;5142406;27;19924;-74
2023/04/08 11:08:09;;;;;;;;;;;14.40;47.80;;;;;;5108233;28;19920;-72
2023/04/08 11:10:36;;;;;;;;;;;14.40;47.90;;;;;;5108091;28;20290;-74
2023/04/08 11:13:02;;;;;;;;;;;14.50;48.00;;;;;;5109177;28;20045;-76
2023/04/08 11:15:29;;;;;;;;;;;14.50;48.10;;;;;;5107966;28;19928;-74
2023/04/08 11:17:55;;;;;;;;;;;14.40;48.00;;;;;;5109256;28;20351;-74
2023/04/08 11:20:21;;;;;;;;;;;14.50;48.20;;;;;;5107591;28;19985;-74
2023/04/08 11:22:47;;;;;;;;;;;14.40;48.20;;;;;;5107706;28;20371;-74
2023/04/08 11:25:12;;;;;;;;;;;14.50;48.30;;;;;;5107779;28;20353;-75
2023/04/08 11:27:38;;;;;;;;;;;14.50;48.30;;;;;;5108852;28;19923;-74
2023/04/08 11:30:04;;;;;;;;;;;14.50;48.30;;;;;;5106481;28;20011;-74
2023/04/08 11:32:30;;;;;;;;;;;14.50;48.50;;;;;;5094049;28;19933;-75
2023/04/08 11:34:56;;;;;;;;;;;14.50;48.60;;;;;;5094306;28;19924;-75
2023/04/08 11:37:24;;;;;;;;;;;14.50;48.60;;;;;;5095230;28;19927;-73
2023/04/08 11:39:50;;;;;;;;;;;14.50;48.70;;;;;;5094045;28;20029;-75
2023/04/08 11:42:31;;;;;;;;;;;14.50;48.70;;;;;;5095032;28;19920;-75
2023/04/08 11:44:57;;;;;;;;;;;14.50;48.70;;;;;;5094136;28;19927;-75
2023/04/08 11:47:31;;;;;;;;;;;14.50;48.70;;;;;;5093735;28;19920;-75
2023/04/08 11:49:56;;;;;;;;;;;14.50;48.70;;;;;;5095165;28;19920;-75
2023/04/08 11:52:22;;;;;;;;;;;14.50;48.70;;;;;;5093654;28;19927;-75
2023/04/08 11:54:47;;;;;;;;;;;14.50;48.80;;;;;;5093992;28;19920;-71
2023/04/08 11:57:14;;;;;;;;;;;14.50;48.90;;;;;;5093479;28;19979;-75
2023/04/08 11:59:40;;;;;;;;;;;14.60;48.80;;;;;;5093534;28;19924;-75
2023/04/08 12:02:06;;;;;;;;;;;14.50;48.80;;;;;;5094882;28;19969;-76
2023/04/08 12:04:32;;;;;;;;;;;14.50;48.80;;;;;;5093334;28;19920;-75
2023/04/08 12:06:58;;;;;;;;;;;14.50;48.90;;;;;;5093750;28;19920;-75
2023/04/08 12:09:24;;;;;;;;;;;14.50;48.90;;;;;;5093385;28;20389;-76
2023/04/08 12:11:49;;;;;;;;;;;14.50;48.90;;;;;;5094593;28;19920;-75
2023/04/08 12:14:15;;;;;;;;;;;14.50;48.90;;;;;;5093826;28;19927;-75
2023/04/08 12:16:40;;;;;;;;;;;14.50;49.00;;;;;;5093551;28;19921;-74
2023/04/08 12:19:06;;;;;;;;;;;14.50;49.00;;;;;;5092801;28;20390;-75
2023/04/08 12:21:33;;;;;;;;;;;14.50;48.90;;;;;;5093136;28;19920;-76
2023/04/08 12:23:58;;;;;;;;;;;14.50;48.90;;;;;;5093306;28;19920;-76
2023/04/08 12:26:24;;;;;;;;;;;14.50;48.90;;;;;;5093333;28;20390;-78
2023/04/08 12:28:49;;;;;;;;;;;14.50;48.90;;;;;;5094225;28;20393;-71
2023/04/08 12:31:15;;;;;;;;;;;14.50;48.90;;;;;;5094412;28;19924;-76
2023/04/08 12:33:40;;;;;;;;;;;14.50;48.90;;;;;;5093196;28;19920;-76
2023/04/08 12:36:06;;;;;;;;;;;14.50;48.90;;;;;;5094079;28;20303;-72
2023/04/08 12:38:32;;;;;;;;;;;14.50;48.90;;;;;;5093003;28;19969;-76
2023/04/08 12:40:58;;;;;;;;;;;14.50;48.90;;;;;;5094104;28;20230;-76
2023/04/08 12:43:23;;;;;;;;;;;14.50;49.10;;;;;;5092064;28;20587;-76
2023/04/08 12:45:50;;;;;;;;;;;14.50;49.10;;;;;;5092594;28;20272;-77
2023/04/08 12:48:15;;;;;;;;;;;14.50;49.00;;;;;;5092925;28;20253;-76
2023/04/08 12:50:41;;;;;;;;;;;14.50;49.00;;;;;;5092848;28;19920;-76
2023/04/08 12:53:07;;;;;;;;;;;14.50;49.10;;;;;;5092574;28;20391;-76
2023/04/08 12:55:32;;;;;;;;;;;14.50;49.10;;;;;;5092639;28;19927;-70
2023/04/08 12:57:58;;;;;;;;;;;14.50;49.10;;;;;;5093663;28;19927;-76
2023/04/08 13:00:23;;;;;;;;;;;14.50;49.20;;;;;;5093586;28;19924;-72
2023/04/08 13:02:49;;;;;;;;;;;14.50;49.20;;;;;;5092621;28;19920;-76
2023/04/08 13:05:14;;;;;;;;;;;14.60;49.30;;;;;;5093651;28;20375;-76
2023/04/08 13:07:40;;;;;;;;;;;14.50;49.40;;;;;;5093525;28;20364;-76
2023/04/08 13:10:06;;;;;;;;;;;14.50;49.40;;;;;;5093409;28;19927;-76
2023/04/08 13:12:32;;;;;;;;;;;14.50;49.60;;;;;;5091892;28;20397;-76
2023/04/08 13:14:58;;;;;;;;;;;14.50;49.90;;;;;;5090218;28;20014;-76
2023/04/08 13:17:24;;;;;;;;;;;14.60;50.20;;;;;;5092983;28;20207;-76
2023/04/08 13:19:50;;;;;;;;;;;14.50;50.00;;;;;;5090307;28;20387;-76
2023/04/08 13:22:15;;;;;;;;;;;14.50;50.10;;;;;;5091903;28;19920;-73
2023/04/08 13:24:41;;;;;;;;;;;14.50;50.00;;;;;;5090526;28;19926;-76
2023/04/08 13:27:07;;;;;;;;;;;14.50;50.00;;;;;;5092065;28;19924;-76
2023/04/08 13:29:32;;;;;;;;;;;14.50;50.10;;;;;;5091805;28;19946;-77
2023/04/08 13:31:58;;;;;;;;;;;14.50;50.10;;;;;;5091837;28;19924;-76
2023/04/08 13:34:23;;;;;;;;;;;14.50;50.00;;;;;;5092106;28;19924;-77
2023/04/08 13:36:49;;;;;;;;;;;14.50;50.00;;;;;;5091679;28;20015;-77
2023/04/08 13:39:14;;;;;;;;;;;14.50;50.00;;;;;;5093034;28;19984;-76
2023/04/08 13:41:40;;;;;;;;;;;14.50;49.90;;;;;;5091614;28;20399;-77
2023/04/08 13:44:05;;;;;;;;;;;14.50;49.90;;;;;;5092940;28;19927;-77
2023/04/08 13:46:31;;;;;;;;;;;14.50;49.90;;;;;;5090691;28;20402;-77
2023/04/08 13:48:56;;;;;;;;;;;14.50;50.00;;;;;;5091419;28;19920;-77
2023/04/08 13:51:22;;;;;;;;;;;14.50;50.00;;;;;;5091313;28;19920;-77
2023/04/08 13:53:47;;;;;;;;;;;14.50;49.90;;;;;;5091265;28;20366;-76
2023/04/08 13:56:13;;;;;;;;;;;14.60;49.90;;;;;;5091464;28;20007;-76
2023/04/08 13:58:39;;;;;;;;;;;14.50;49.90;;;;;;5091606;28;19924;-77
2023/04/08 14:01:04;;;;;;;;;;;14.50;49.90;;;;;;5091512;28;20295;-77
2023/04/08 14:03:30;;;;;;;;;;;14.50;50.00;;;;;;5091344;28;19920;-72
2023/04/08 14:05:56;;;;;;;;;;;14.50;50.00;;;;;;5092606;28;19935;-76
2023/04/08 14:08:24;;;;;;;;;;;14.50;50.00;;;;;;5092598;28;19921;-72
2023/04/08 14:10:51;;;;;;;;;;;14.50;50.00;;;;;;5091304;28;19920;-77
2023/04/08 14:13:16;;;;;;;;;;;14.50;50.10;;;;;;5091173;28;19920;-77
2023/04/08 14:15:42;;;;;;;;;;;14.50;50.20;;;;;;5125607;27;19942;-76
2023/04/08 14:18:07;;;;;;;;;;;14.50;50.10;;;;;;5091403;28;19972;-74
2023/04/08 14:20:34;;;;;;;;;;;14.50;50.20;;;;;;5091088;28;19924;-73
2023/04/08 14:23:00;;;;;;;;;;;14.50;50.20;;;;;;5090981;28;20018;-77